Time;durP1;ratioP1;P1;durP2;ratioP2;P2;SDS_P1;SDS_P2;PMS_P1;PMS_P2;Temp;Humidity;BMP_temperature;BMP_pressure;BME280_temperature;BME280_humidity;BME280_pressure;Samples;Min_cycle;Max_cycle;Signal;HPM_P1;HPM_P2
2023/11/26 00:08:08;;;;;;;13.9;7.5;;;;;;;0.8;83.75;;;;;
2023/11/26 00:18:08;;;;;;;13.9;7.5;;;;;;;0.73;84.34;;;;;
2023/11/26 00:28:08;;;;;;;13.9;7.5;;;;;;;0.84;84.05;;;;;
2023/11/26 00:39:08;;;;;;;13.9;7.5;;;;;;;0.86;84.43;;;;;
2023/11/26 00:50:08;;;;;;;13.9;7.5;;;;;;;0.91;84.64;;;;;
2023/11/26 01:01:08;;;;;;;14.6;8.6;;;;;;;0.85;85.32;;;;;
2023/11/26 01:12:08;;;;;;;14.6;8.6;;;;;;;0.88;85.36;;;;;
2023/11/26 01:23:08;;;;;;;14.6;8.6;;;;;;;0.95;85.51;;;;;
2023/11/26 01:33:08;;;;;;;19.4;9.6;;;;;;;0.94;85.45;;;;;
2023/11/26 01:44:08;;;;;;;19.4;9.6;;;;;;;0.89;85.79;;;;;
2023/11/26 01:55:08;;;;;;;19.4;9.6;;;;;;;0.9;85.94;;;;;
2023/11/26 02:05:08;;;;;;;21.6;10.7;;;;;;;0.87;86.7;;;;;
2023/11/26 02:16:08;;;;;;;21.6;10.7;;;;;;;0.84;86.09;;;;;
2023/11/26 02:26:09;;;;;;;12.4;7;;;;;;;0.81;83.85;;;;;
2023/11/26 02:37:08;;;;;;;12.4;7;;;;;;;0.74;82.55;;;;;
2023/11/26 02:47:08;;;;;;;12.4;7;;;;;;;0.66;83.32;;;;;
2023/11/26 02:57:08;;;;;;;5.7;2.5;;;;;;;0.43;84.37;;;;;
2023/11/26 03:08:20;;;;;;;5.7;2.5;;;;;;;0.35;85.22;;;;;
2023/11/26 03:18:08;;;;;;;5.7;2.5;;;;;;;0.23;86.08;;;;;
2023/11/26 03:29:08;;;;;;;4.9;2.3;;;;;;;0.16;86.1;;;;;
2023/11/26 03:40:08;;;;;;;4.9;2.3;;;;;;;0.05;86.46;;;;;
2023/11/26 03:50:09;;;;;;;4.9;2.3;;;;;;;0.03;86.66;;;;;
2023/11/26 04:00:08;;;;;;;4.4;2.2;;;;;;;0.03;86.69;;;;;
2023/11/26 04:11:08;;;;;;;4.4;2.2;;;;;;;0.09;86.98;;;;;
2023/11/26 04:22:08;;;;;;;4.4;2.2;;;;;;;0.21;86.86;;;;;
2023/11/26 04:32:08;;;;;;;6;2.9;;;;;;;0.29;86.07;;;;;
2023/11/26 04:43:08;;;;;;;6;2.9;;;;;;;0.02;84.45;;;;;
2023/11/26 04:53:08;;;;;;;6;2.9;;;;;;;-0.07;83.5;;;;;
2023/11/26 05:04:09;;;;;;;6.2;3.3;;;;;;;-0.16;82.73;;;;;
2023/11/26 05:15:08;;;;;;;6.2;3.3;;;;;;;-0.34;83.21;;;;;
2023/11/26 05:25:08;;;;;;;6.2;2.8;;;;;;;-0.5;83.42;;;;;
2023/11/26 05:36:08;;;;;;;6.2;2.8;;;;;;;-0.58;84.06;;;;;
2023/11/26 05:47:08;;;;;;;6.2;2.8;;;;;;;-0.65;84.26;;;;;
2023/11/26 05:58:08;;;;;;;6.4;4;;;;;;;-0.72;84.03;;;;;
2023/11/26 06:09:09;;;;;;;6.4;4;;;;;;;-0.7;80.7;;;;;
2023/11/26 06:19:08;;;;;;;6.4;4;;;;;;;-0.69;79.03;;;;;
2023/11/26 06:30:09;;;;;;;7;3.1;;;;;;;-0.58;78.74;;;;;
2023/11/26 06:40:08;;;;;;;7;3.1;;;;;;;-0.58;78.38;;;;;
2023/11/26 06:51:08;;;;;;;7;3.1;;;;;;;-0.75;78.89;;;;;
2023/11/26 07:02:08;;;;;;;4.5;3.1;;;;;;;-0.55;78.94;;;;;
2023/11/26 07:12:08;;;;;;;4.5;3.1;;;;;;;-0.38;78.85;;;;;
2023/11/26 07:23:08;;;;;;;4.5;3.1;;;;;;;-0.26;78.2;;;;;
2023/11/26 07:34:08;;;;;;;7.7;3.8;;;;;;;-0.02;78.4;;;;;
2023/11/26 07:44:09;;;;;;;7.7;3.8;;;;;;;0.17;77.73;;;;;
2023/11/26 07:55:08;;;;;;;7.3;4.2;;;;;;;0.14;77.08;;;;;
2023/11/26 08:05:10;;;;;;;7.3;4.2;;;;;;;0.01;76.77;;;;;
2023/11/26 08:16:09;;;;;;;7.3;4.2;;;;;;;-0.12;76.19;;;;;
2023/11/26 08:26:09;;;;;;;7;3.4;;;;;;;0;74.12;;;;;
2023/11/26 08:36:08;;;;;;;7;3.4;;;;;;;0.05;74.62;;;;;
2023/11/26 08:47:08;;;;;;;7;3.4;;;;;;;0.44;73.54;;;;;
2023/11/26 08:57:08;;;;;;;7.1;4;;;;;;;0.26;72.45;;;;;
2023/11/26 09:08:09;;;;;;;7.1;4;;;;;;;0.48;71.68;;;;;
2023/11/26 09:18:09;;;;;;;7.1;4;;;;;;;0.73;69.53;;;;;
2023/11/26 09:29:08;;;;;;;5;2.5;;;;;;;0.56;69.7;;;;;
2023/11/26 09:40:08;;;;;;;5;2.5;;;;;;;0.22;70.06;;;;;
2023/11/26 09:51:08;;;;;;;5;2.5;;;;;;;0.27;70.94;;;;;
2023/11/26 10:01:09;;;;;;;5;2.1;;;;;;;0.2;71.14;;;;;
2023/11/26 10:11:08;;;;;;;5;2.1;;;;;;;0.21;70.58;;;;;
2023/11/26 10:22:08;;;;;;;5;2.1;;;;;;;0.29;70.15;;;;;
2023/11/26 10:33:08;;;;;;;4.4;3;;;;;;;0.2;70.51;;;;;
2023/11/26 10:43:08;;;;;;;4.4;3;;;;;;;0.06;69.26;;;;;
2023/11/26 10:54:08;;;;;;;4.4;3;;;;;;;0.39;70.69;;;;;
2023/11/26 11:05:09;;;;;;;4.5;2.3;;;;;;;0.61;69.96;;;;;
2023/11/26 11:15:08;;;;;;;4.5;2.3;;;;;;;0.48;68.58;;;;;
2023/11/26 11:25:08;;;;;;;6.2;2.3;;;;;;;0.25;68.1;;;;;
2023/11/26 11:36:08;;;;;;;6.2;2.3;;;;;;;0.24;69.94;;;;;
2023/11/26 11:46:08;;;;;;;6.2;2.3;;;;;;;0.2;69.57;;;;;
2023/11/26 11:57:08;;;;;;;4.4;1.8;;;;;;;0.28;69.62;;;;;
2023/11/26 12:08:08;;;;;;;4.4;1.8;;;;;;;0.15;72.06;;;;;
2023/11/26 12:19:08;;;;;;;4.4;1.8;;;;;;;-0.11;75.38;;;;;
2023/11/26 12:29:13;;;;;;;4.3;1.9;;;;;;;-0.02;74.13;;;;;
2023/11/26 12:40:08;;;;;;;4.3;1.9;;;;;;;0.09;69.48;;;;;
2023/11/26 12:51:08;;;;;;;4.3;1.9;;;;;;;0.1;69.19;;;;;
2023/11/26 13:02:08;;;;;;;3;1.7;;;;;;;0.02;68.45;;;;;
2023/11/26 13:12:08;;;;;;;3;1.7;;;;;;;0.14;68.32;;;;;
2023/11/26 13:23:08;;;;;;;3;1.7;;;;;;;0.2;68.41;;;;;
2023/11/26 13:34:08;;;;;;;;;;;;;;;;;;;;;
2023/11/26 13:45:08;;;;;;;;;;;;;;;;;;;;;
2023/11/26 13:55:08;;;;;;;;;;;;;;;;;;;;;
2023/11/26 14:06:09;;;;;;;9.7;3.3;;;;;;;-0.12;69.45;;;;;
2023/11/26 14:16:08;;;;;;;9.7;3.3;;;;;;;-0.26;69.89;;;;;
2023/11/26 14:27:08;;;;;;;9.7;3.3;;;;;;;-0.17;70.18;;;;;
2023/11/26 14:37:09;;;;;;;5.6;2.1;;;;;;;-0.47;71.95;;;;;
2023/11/26 14:48:08;;;;;;;5.6;2.1;;;;;;;-0.54;73.45;;;;;
2023/11/26 14:59:08;;;;;;;5.6;2.1;;;;;;;-0.58;71.46;;;;;
2023/11/26 15:09:08;;;;;;;3;1.8;;;;;;;-0.7;70.48;;;;;
2023/11/26 15:19:08;;;;;;;3;1.8;;;;;;;-0.65;70.68;;;;;
2023/11/26 15:30:08;;;;;;;3;1.8;;;;;;;-0.66;71.32;;;;;
2023/11/26 15:40:10;;;;;;;6.3;3.5;;;;;;;-0.7;72.65;;;;;
2023/11/26 15:51:09;;;;;;;6.3;3.5;;;;;;;-0.72;71.03;;;;;
2023/11/26 16:01:08;;;;;;;6.3;3.5;;;;;;;-0.66;70.18;;;;;
2023/11/26 16:11:09;;;;;;;6.4;3.1;;;;;;;-0.72;70.67;;;;;
2023/11/26 16:22:08;;;;;;;6.4;3.1;;;;;;;-0.74;73.93;;;;;
2023/11/26 16:33:08;;;;;;;6.4;3.1;;;;;;;-0.71;75.12;;;;;
2023/11/26 16:43:08;;;;;;;9.9;4.2;;;;;;;-0.8;76.62;;;;;
2023/11/26 16:53:08;;;;;;;9.9;4.2;;;;;;;-0.82;77.05;;;;;
2023/11/26 17:03:09;;;;;;;8.5;5.1;;;;;;;-0.94;77.63;;;;;
2023/11/26 17:14:09;;;;;;;8.5;5.1;;;;;;;-0.98;81.03;;;;;
2023/11/26 17:25:09;;;;;;;8.5;5.1;;;;;;;-1.11;83.44;;;;;
2023/11/26 17:35:08;;;;;;;10.6;6.1;;;;;;;-1.23;83.71;;;;;
2023/11/26 17:46:08;;;;;;;10.6;6.1;;;;;;;-1.13;82.99;;;;;
2023/11/26 17:57:09;;;;;;;10.6;6.1;;;;;;;-1.17;81.84;;;;;
2023/11/26 18:07:08;;;;;;;9.3;4.7;;;;;;;-1.33;81.07;;;;;
2023/11/26 18:17:09;;;;;;;9.3;4.7;;;;;;;-1.38;81.29;;;;;
